sensor_id;sensor_type;location;lat;lon;timestamp;P1;durP1;ratioP1;P2;durP2;ratioP2
14528;SDS011;7351;51.194;4.098;2023-02-01T00:02:23;9.07;;;5.23;;
14528;SDS011;7351;51.194;4.098;2023-02-01T00:04:51;7.27;;;4.77;;
14528;SDS011;7351;51.194;4.098;2023-02-01T00:07:18;8.47;;;4.57;;
14528;SDS011;7351;51.194;4.098;2023-02-01T00:09:45;8.80;;;5.63;;
14528;SDS011;7351;51.194;4.098;2023-02-01T00:12:12;6.37;;;5.37;;
14528;SDS011;7351;51.194;4.098;2023-02-01T00:14:39;7.93;;;5.23;;
14528;SDS011;7351;51.194;4.098;2023-02-01T00:17:06;6.73;;;5.00;;
14528;SDS011;7351;51.194;4.098;2023-02-01T00:19:34;11.90;;;5.07;;
14528;SDS011;7351;51.194;4.098;2023-02-01T00:22:02;6.57;;;5.13;;
14528;SDS011;7351;51.194;4.098;2023-02-01T00:24:29;5.77;;;4.47;;
14528;SDS011;7351;51.194;4.098;2023-02-01T00:26:56;7.10;;;5.00;;
14528;SDS011;7351;51.194;4.098;2023-02-01T00:29:23;7.43;;;5.53;;
14528;SDS011;7351;51.194;4.098;2023-02-01T00:31:51;11.13;;;5.80;;
14528;SDS011;7351;51.194;4.098;2023-02-01T00:34:18;8.90;;;4.97;;
14528;SDS011;7351;51.194;4.098;2023-02-01T00:36:46;6.33;;;5.40;;
14528;SDS011;7351;51.194;4.098;2023-02-01T00:39:14;6.33;;;5.30;;
14528;SDS011;7351;51.194;4.098;2023-02-01T00:41:41;6.87;;;4.60;;
14528;SDS011;7351;51.194;4.098;2023-02-01T00:44:08;10.90;;;5.53;;
14528;SDS011;7351;51.194;4.098;2023-02-01T00:46:36;7.00;;;4.77;;
14528;SDS011;7351;51.194;4.098;2023-02-01T00:49:03;6.00;;;4.90;;
14528;SDS011;7351;51.194;4.098;2023-02-01T00:51:32;9.00;;;5.10;;
14528;SDS011;7351;51.194;4.098;2023-02-01T00:53:59;8.23;;;4.73;;
14528;SDS011;7351;51.194;4.098;2023-02-01T00:56:27;6.57;;;4.97;;
14528;SDS011;7351;51.194;4.098;2023-02-01T00:58:54;6.20;;;4.60;;
14528;SDS011;7351;51.194;4.098;2023-02-01T01:01:22;8.30;;;5.23;;
14528;SDS011;7351;51.194;4.098;2023-02-01T01:03:50;8.23;;;5.10;;
14528;SDS011;7351;51.194;4.098;2023-02-01T01:06:19;8.13;;;5.70;;
14528;SDS011;7351;51.194;4.098;2023-02-01T01:08:50;8.70;;;5.50;;
14528;SDS011;7351;51.194;4.098;2023-02-01T01:11:18;7.27;;;5.53;;
14528;SDS011;7351;51.194;4.098;2023-02-01T01:13:47;8.50;;;4.47;;
14528;SDS011;7351;51.194;4.098;2023-02-01T01:16:15;6.87;;;4.63;;
14528;SDS011;7351;51.194;4.098;2023-02-01T01:18:43;8.63;;;5.27;;
14528;SDS011;7351;51.194;4.098;2023-02-01T01:21:11;8.07;;;5.10;;
14528;SDS011;7351;51.194;4.098;2023-02-01T01:23:40;6.00;;;4.40;;
14528;SDS011;7351;51.194;4.098;2023-02-01T01:26:07;7.73;;;4.80;;
14528;SDS011;7351;51.194;4.098;2023-02-01T01:28:35;5.07;;;4.63;;
14528;SDS011;7351;51.194;4.098;2023-02-01T01:31:05;6.30;;;4.73;;
14528;SDS011;7351;51.194;4.098;2023-02-01T01:33:34;7.80;;;4.60;;
14528;SDS011;7351;51.194;4.098;2023-02-01T01:36:01;8.40;;;4.93;;
14528;SDS011;7351;51.194;4.098;2023-02-01T01:38:30;7.50;;;4.40;;
14528;SDS011;7351;51.194;4.098;2023-02-01T01:40:57;9.93;;;5.27;;
14528;SDS011;7351;51.194;4.098;2023-02-01T01:43:24;5.67;;;4.47;;
14528;SDS011;7351;51.194;4.098;2023-02-01T01:45:51;8.37;;;4.93;;
14528;SDS011;7351;51.194;4.098;2023-02-01T01:48:20;7.50;;;4.37;;
14528;SDS011;7351;51.194;4.098;2023-02-01T01:50:53;5.03;;;4.53;;
14528;SDS011;7351;51.194;4.098;2023-02-01T01:53:26;7.40;;;5.93;;
14528;SDS011;7351;51.194;4.098;2023-02-01T01:55:56;7.43;;;4.93;;
14528;SDS011;7351;51.194;4.098;2023-02-01T01:58:24;8.53;;;5.30;;
14528;SDS011;7351;51.194;4.098;2023-02-01T02:00:54;5.27;;;4.20;;
14528;SDS011;7351;51.194;4.098;2023-02-01T02:03:23;11.37;;;5.30;;
14528;SDS011;7351;51.194;4.098;2023-02-01T02:05:54;4.50;;;3.83;;
14528;SDS011;7351;51.194;4.098;2023-02-01T02:08:25;4.87;;;4.33;;
14528;SDS011;7351;51.194;4.098;2023-02-01T02:10:53;5.57;;;4.43;;
14528;SDS011;7351;51.194;4.098;2023-02-01T02:13:26;4.20;;;3.80;;
14528;SDS011;7351;51.194;4.098;2023-02-01T02:16:01;10.20;;;4.80;;
14528;SDS011;7351;51.194;4.098;2023-02-01T02:18:38;5.63;;;4.53;;
14528;SDS011;7351;51.194;4.098;2023-02-01T02:21:16;5.93;;;4.63;;
14528;SDS011;7351;51.194;4.098;2023-02-01T02:26:54;6.70;;;3.70;;
14528;SDS011;7351;51.194;4.098;2023-02-01T02:35:45;8.37;;;4.57;;
14528;SDS011;7351;51.194;4.098;2023-02-01T02:38:17;7.60;;;3.93;;
14528;SDS011;7351;51.194;4.098;2023-02-01T02:40:53;7.83;;;4.77;;
14528;SDS011;7351;51.194;4.098;2023-02-01T02:43:28;9.90;;;5.00;;
14528;SDS011;7351;51.194;4.098;2023-02-01T02:46:22;6.63;;;4.73;;
14528;SDS011;7351;51.194;4.098;2023-02-01T02:49:11;8.23;;;5.13;;
14528;SDS011;7351;51.194;4.098;2023-02-01T02:51:45;9.03;;;4.77;;
14528;SDS011;7351;51.194;4.098;2023-02-01T02:54:41;7.00;;;4.07;;
14528;SDS011;7351;51.194;4.098;2023-02-01T02:57:14;5.93;;;4.20;;
14528;SDS011;7351;51.194;4.098;2023-02-01T03:00:03;7.33;;;3.90;;
14528;SDS011;7351;51.194;4.098;2023-02-01T03:02:50;7.30;;;4.50;;
14528;SDS011;7351;51.194;4.098;2023-02-01T03:05:36;7.40;;;4.60;;
14528;SDS011;7351;51.194;4.098;2023-02-01T03:08:10;9.27;;;4.90;;
14528;SDS011;7351;51.194;4.098;2023-02-01T03:10:41;7.67;;;4.53;;
14528;SDS011;7351;51.194;4.098;2023-02-01T03:13:14;6.10;;;3.90;;
14528;SDS011;7351;51.194;4.098;2023-02-01T03:15:49;6.27;;;4.53;;
14528;SDS011;7351;51.194;4.098;2023-02-01T03:18:22;6.47;;;3.73;;
14528;SDS011;7351;51.194;4.098;2023-02-01T03:20:56;6.90;;;4.80;;
14528;SDS011;7351;51.194;4.098;2023-02-01T03:23:30;6.83;;;4.33;;
14528;SDS011;7351;51.194;4.098;2023-02-01T03:25:59;6.13;;;4.33;;
14528;SDS011;7351;51.194;4.098;2023-02-01T03:28:28;8.80;;;4.50;;
14528;SDS011;7351;51.194;4.098;2023-02-01T03:30:57;4.80;;;3.97;;
14528;SDS011;7351;51.194;4.098;2023-02-01T03:33:25;8.87;;;4.87;;
14528;SDS011;7351;51.194;4.098;2023-02-01T03:35:57;6.73;;;3.97;;
14528;SDS011;7351;51.194;4.098;2023-02-01T03:38:31;6.47;;;4.67;;
14528;SDS011;7351;51.194;4.098;2023-02-01T03:41:08;7.37;;;4.43;;
14528;SDS011;7351;51.194;4.098;2023-02-01T03:43:40;7.60;;;4.53;;
14528;SDS011;7351;51.194;4.098;2023-02-01T03:46:15;6.83;;;4.17;;
14528;SDS011;7351;51.194;4.098;2023-02-01T03:48:48;6.60;;;4.90;;
14528;SDS011;7351;51.194;4.098;2023-02-01T03:51:16;6.70;;;4.43;;
14528;SDS011;7351;51.194;4.098;2023-02-01T03:53:46;6.27;;;4.90;;
14528;SDS011;7351;51.194;4.098;2023-02-01T03:56:15;9.40;;;5.20;;
14528;SDS011;7351;51.194;4.098;2023-02-01T03:58:43;7.67;;;4.17;;
14528;SDS011;7351;51.194;4.098;2023-02-01T04:01:23;9.53;;;5.13;;
14528;SDS011;7351;51.194;4.098;2023-02-01T04:03:51;11.17;;;5.13;;
14528;SDS011;7351;51.194;4.098;2023-02-01T04:06:18;8.40;;;4.23;;
14528;SDS011;7351;51.194;4.098;2023-02-01T04:08:46;8.43;;;5.00;;
14528;SDS011;7351;51.194;4.098;2023-02-01T04:11:13;8.67;;;4.23;;
14528;SDS011;7351;51.194;4.098;2023-02-01T04:13:40;6.63;;;4.57;;
14528;SDS011;7351;51.194;4.098;2023-02-01T04:16:07;10.33;;;4.93;;
14528;SDS011;7351;51.194;4.098;2023-02-01T04:18:34;7.33;;;5.07;;
14528;SDS011;7351;51.194;4.098;2023-02-01T04:21:01;7.93;;;4.07;;
14528;SDS011;7351;51.194;4.098;2023-02-01T04:23:29;8.90;;;5.60;;
14528;SDS011;7351;51.194;4.098;2023-02-01T04:26:00;7.87;;;5.10;;
14528;SDS011;7351;51.194;4.098;2023-02-01T04:28:27;10.23;;;5.20;;
14528;SDS011;7351;51.194;4.098;2023-02-01T04:30:54;6.47;;;4.93;;
14528;SDS011;7351;51.194;4.098;2023-02-01T04:33:22;8.23;;;5.00;;
14528;SDS011;7351;51.194;4.098;2023-02-01T04:35:49;8.43;;;5.00;;
14528;SDS011;7351;51.194;4.098;2023-02-01T04:38:15;10.93;;;5.23;;
14528;SDS011;7351;51.194;4.098;2023-02-01T04:40:42;6.53;;;4.63;;
14528;SDS011;7351;51.194;4.098;2023-02-01T04:43:11;9.23;;;4.73;;
14528;SDS011;7351;51.194;4.098;2023-02-01T04:45:38;7.63;;;4.73;;
14528;SDS011;7351;51.194;4.098;2023-02-01T04:48:05;9.10;;;5.40;;
14528;SDS011;7351;51.194;4.098;2023-02-01T04:50:32;7.90;;;4.90;;
14528;SDS011;7351;51.194;4.098;2023-02-01T04:52:59;6.40;;;4.07;;
14528;SDS011;7351;51.194;4.098;2023-02-01T04:55:26;7.13;;;4.97;;
14528;SDS011;7351;51.194;4.098;2023-02-01T04:57:53;8.80;;;5.13;;
14528;SDS011;7351;51.194;4.098;2023-02-01T05:00:21;7.07;;;4.80;;
14528;SDS011;7351;51.194;4.098;2023-02-01T05:02:49;7.63;;;5.07;;
14528;SDS011;7351;51.194;4.098;2023-02-01T05:05:16;8.47;;;4.13;;
14528;SDS011;7351;51.194;4.098;2023-02-01T05:07:43;6.40;;;4.63;;
14528;SDS011;7351;51.194;4.098;2023-02-01T05:10:12;7.27;;;5.70;;
14528;SDS011;7351;51.194;4.098;2023-02-01T05:12:39;7.23;;;4.87;;
14528;SDS011;7351;51.194;4.098;2023-02-01T05:15:24;7.03;;;4.60;;
14528;SDS011;7351;51.194;4.098;2023-02-01T05:17:51;7.63;;;4.80;;
14528;SDS011;7351;51.194;4.098;2023-02-01T05:20:18;9.43;;;4.93;;
14528;SDS011;7351;51.194;4.098;2023-02-01T05:22:45;10.77;;;5.53;;
14528;SDS011;7351;51.194;4.098;2023-02-01T05:25:12;8.90;;;4.73;;
14528;SDS011;7351;51.194;4.098;2023-02-01T05:27:39;7.73;;;4.93;;
14528;SDS011;7351;51.194;4.098;2023-02-01T05:30:07;7.57;;;5.03;;
14528;SDS011;7351;51.194;4.098;2023-02-01T05:32:36;9.10;;;4.70;;
14528;SDS011;7351;51.194;4.098;2023-02-01T05:35:04;6.47;;;4.00;;
14528;SDS011;7351;51.194;4.098;2023-02-01T05:37:31;10.47;;;4.53;;
14528;SDS011;7351;51.194;4.098;2023-02-01T05:39:58;6.30;;;4.97;;
14528;SDS011;7351;51.194;4.098;2023-02-01T05:42:25;9.97;;;4.53;;
14528;SDS011;7351;51.194;4.098;2023-02-01T05:44:52;7.77;;;5.17;;
14528;SDS011;7351;51.194;4.098;2023-02-01T05:47:19;9.03;;;5.30;;
14528;SDS011;7351;51.194;4.098;2023-02-01T05:49:47;8.73;;;4.40;;
14528;SDS011;7351;51.194;4.098;2023-02-01T05:52:14;8.40;;;4.93;;
14528;SDS011;7351;51.194;4.098;2023-02-01T05:54:44;9.30;;;5.10;;
14528;SDS011;7351;51.194;4.098;2023-02-01T05:57:11;10.67;;;5.17;;
14528;SDS011;7351;51.194;4.098;2023-02-01T05:59:39;6.57;;;4.83;;
14528;SDS011;7351;51.194;4.098;2023-02-01T06:02:09;7.50;;;4.87;;
14528;SDS011;7351;51.194;4.098;2023-02-01T06:04:36;8.57;;;5.30;;
14528;SDS011;7351;51.194;4.098;2023-02-01T06:07:05;15.77;;;6.17;;
14528;SDS011;7351;51.194;4.098;2023-02-01T06:09:35;8.63;;;5.20;;
14528;SDS011;7351;51.194;4.098;2023-02-01T06:12:03;11.70;;;5.43;;
14528;SDS011;7351;51.194;4.098;2023-02-01T06:14:30;6.53;;;4.90;;
14528;SDS011;7351;51.194;4.098;2023-02-01T06:16:57;9.63;;;5.60;;
14528;SDS011;7351;51.194;4.098;2023-02-01T06:19:24;9.30;;;5.40;;
14528;SDS011;7351;51.194;4.098;2023-02-01T06:21:51;12.87;;;5.53;;
14528;SDS011;7351;51.194;4.098;2023-02-01T06:24:20;11.33;;;5.13;;
14528;SDS011;7351;51.194;4.098;2023-02-01T06:26:47;7.87;;;4.73;;
14528;SDS011;7351;51.194;4.098;2023-02-01T06:29:13;17.70;;;5.83;;
14528;SDS011;7351;51.194;4.098;2023-02-01T06:31:40;11.00;;;6.00;;
14528;SDS011;7351;51.194;4.098;2023-02-01T06:34:08;10.50;;;5.03;;
14528;SDS011;7351;51.194;4.098;2023-02-01T06:36:36;11.67;;;5.43;;
14528;SDS011;7351;51.194;4.098;2023-02-01T06:39:03;9.30;;;4.83;;
14528;SDS011;7351;51.194;4.098;2023-02-01T06:41:31;9.57;;;5.77;;
14528;SDS011;7351;51.194;4.098;2023-02-01T06:43:59;10.53;;;5.67;;
14528;SDS011;7351;51.194;4.098;2023-02-01T06:46:26;8.63;;;4.47;;
14528;SDS011;7351;51.194;4.098;2023-02-01T06:48:53;9.50;;;4.93;;
14528;SDS011;7351;51.194;4.098;2023-02-01T06:51:21;12.63;;;5.73;;
14528;SDS011;7351;51.194;4.098;2023-02-01T06:53:49;8.90;;;5.63;;
14528;SDS011;7351;51.194;4.098;2023-02-01T06:56:16;7.07;;;4.73;;
14528;SDS011;7351;51.194;4.098;2023-02-01T06:58:45;8.17;;;5.53;;
14528;SDS011;7351;51.194;4.098;2023-02-01T07:01:12;10.27;;;5.77;;
14528;SDS011;7351;51.194;4.098;2023-02-01T07:03:40;9.33;;;4.90;;
14528;SDS011;7351;51.194;4.098;2023-02-01T07:06:07;9.00;;;4.13;;
14528;SDS011;7351;51.194;4.098;2023-02-01T07:08:35;10.47;;;5.87;;
14528;SDS011;7351;51.194;4.098;2023-02-01T07:11:04;7.37;;;4.80;;
14528;SDS011;7351;51.194;4.098;2023-02-01T07:13:32;9.67;;;5.33;;
14528;SDS011;7351;51.194;4.098;2023-02-01T07:16:01;8.70;;;4.43;;
14528;SDS011;7351;51.194;4.098;2023-02-01T07:18:30;11.63;;;5.53;;
14528;SDS011;7351;51.194;4.098;2023-02-01T07:20:58;10.43;;;5.83;;
14528;SDS011;7351;51.194;4.098;2023-02-01T07:23:26;10.47;;;4.63;;
14528;SDS011;7351;51.194;4.098;2023-02-01T07:25:53;9.17;;;4.83;;
14528;SDS011;7351;51.194;4.098;2023-02-01T07:28:20;11.50;;;5.67;;
14528;SDS011;7351;51.194;4.098;2023-02-01T07:30:47;7.60;;;5.17;;
14528;SDS011;7351;51.194;4.098;2023-02-01T07:33:18;6.80;;;5.03;;
14528;SDS011;7351;51.194;4.098;2023-02-01T07:35:46;8.87;;;4.73;;
14528;SDS011;7351;51.194;4.098;2023-02-01T07:38:13;10.47;;;4.97;;
14528;SDS011;7351;51.194;4.098;2023-02-01T07:40:41;10.47;;;4.73;;
14528;SDS011;7351;51.194;4.098;2023-02-01T07:43:08;8.47;;;5.20;;
14528;SDS011;7351;51.194;4.098;2023-02-01T07:45:35;7.47;;;4.80;;
14528;SDS011;7351;51.194;4.098;2023-02-01T07:48:02;8.10;;;5.70;;
14528;SDS011;7351;51.194;4.098;2023-02-01T07:50:31;12.43;;;5.77;;
14528;SDS011;7351;51.194;4.098;2023-02-01T07:52:58;7.50;;;4.50;;
14528;SDS011;7351;51.194;4.098;2023-02-01T07:55:26;11.77;;;5.97;;
14528;SDS011;7351;51.194;4.098;2023-02-01T07:57:56;9.40;;;4.70;;
14528;SDS011;7351;51.194;4.098;2023-02-01T08:00:23;9.90;;;4.90;;
14528;SDS011;7351;51.194;4.098;2023-02-01T08:03:08;10.50;;;5.33;;
14528;SDS011;7351;51.194;4.098;2023-02-01T08:05:37;10.17;;;5.57;;
14528;SDS011;7351;51.194;4.098;2023-02-01T08:08:04;9.23;;;5.57;;
14528;SDS011;7351;51.194;4.098;2023-02-01T08:10:31;9.97;;;5.33;;
14528;SDS011;7351;51.194;4.098;2023-02-01T08:12:59;9.53;;;5.10;;
14528;SDS011;7351;51.194;4.098;2023-02-01T08:15:27;9.20;;;5.23;;
14528;SDS011;7351;51.194;4.098;2023-02-01T08:17:55;11.43;;;5.97;;
14528;SDS011;7351;51.194;4.098;2023-02-01T08:20:22;8.53;;;5.43;;
14528;SDS011;7351;51.194;4.098;2023-02-01T08:22:51;11.80;;;6.07;;
14528;SDS011;7351;51.194;4.098;2023-02-01T08:25:18;10.30;;;5.73;;
14528;SDS011;7351;51.194;4.098;2023-02-01T08:27:46;11.07;;;5.07;;
14528;SDS011;7351;51.194;4.098;2023-02-01T08:30:13;11.07;;;5.70;;
14528;SDS011;7351;51.194;4.098;2023-02-01T08:32:40;11.23;;;5.40;;
14528;SDS011;7351;51.194;4.098;2023-02-01T08:35:07;11.83;;;4.60;;
14528;SDS011;7351;51.194;4.098;2023-02-01T08:37:35;9.17;;;4.60;;
14528;SDS011;7351;51.194;4.098;2023-02-01T08:40:03;11.00;;;5.10;;
14528;SDS011;7351;51.194;4.098;2023-02-01T08:42:31;16.37;;;6.10;;
14528;SDS011;7351;51.194;4.098;2023-02-01T08:45:16;7.67;;;5.00;;
14528;SDS011;7351;51.194;4.098;2023-02-01T08:47:44;11.27;;;5.30;;
14528;SDS011;7351;51.194;4.098;2023-02-01T08:50:13;14.43;;;6.23;;
14528;SDS011;7351;51.194;4.098;2023-02-01T08:52:40;16.30;;;5.50;;
14528;SDS011;7351;51.194;4.098;2023-02-01T08:55:09;10.70;;;5.63;;
14528;SDS011;7351;51.194;4.098;2023-02-01T08:57:37;25.40;;;6.50;;
14528;SDS011;7351;51.194;4.098;2023-02-01T09:00:05;26.83;;;7.50;;
14528;SDS011;7351;51.194;4.098;2023-02-01T09:02:33;29.87;;;6.77;;
14528;SDS011;7351;51.194;4.098;2023-02-01T09:05:00;12.90;;;6.13;;
14528;SDS011;7351;51.194;4.098;2023-02-01T09:07:29;16.70;;;5.83;;
14528;SDS011;7351;51.194;4.098;2023-02-01T09:09:56;19.97;;;6.97;;
14528;SDS011;7351;51.194;4.098;2023-02-01T09:12:27;19.23;;;7.20;;
14528;SDS011;7351;51.194;4.098;2023-02-01T09:14:55;23.17;;;5.93;;
14528;SDS011;7351;51.194;4.098;2023-02-01T09:17:24;12.97;;;6.73;;
14528;SDS011;7351;51.194;4.098;2023-02-01T09:19:51;23.73;;;6.97;;
14528;SDS011;7351;51.194;4.098;2023-02-01T09:22:18;17.37;;;5.80;;
14528;SDS011;7351;51.194;4.098;2023-02-01T09:24:45;13.60;;;5.07;;
14528;SDS011;7351;51.194;4.098;2023-02-01T09:27:12;15.90;;;7.40;;
14528;SDS011;7351;51.194;4.098;2023-02-01T09:29:41;11.70;;;6.50;;
14528;SDS011;7351;51.194;4.098;2023-02-01T09:32:07;14.77;;;7.10;;
14528;SDS011;7351;51.194;4.098;2023-02-01T09:34:35;11.30;;;5.40;;
14528;SDS011;7351;51.194;4.098;2023-02-01T09:37:02;9.23;;;6.30;;
14528;SDS011;7351;51.194;4.098;2023-02-01T09:39:29;12.93;;;6.10;;
14528;SDS011;7351;51.194;4.098;2023-02-01T09:42:01;15.77;;;5.73;;
14528;SDS011;7351;51.194;4.098;2023-02-01T09:47:46;9.47;;;5.97;;
14528;SDS011;7351;51.194;4.098;2023-02-01T09:50:16;13.37;;;6.23;;
14528;SDS011;7351;51.194;4.098;2023-02-01T09:52:47;16.43;;;7.13;;
14528;SDS011;7351;51.194;4.098;2023-02-01T09:55:31;13.30;;;6.10;;
14528;SDS011;7351;51.194;4.098;2023-02-01T09:58:04;12.60;;;5.73;;
14528;SDS011;7351;51.194;4.098;2023-02-01T10:00:36;7.63;;;5.40;;
14528;SDS011;7351;51.194;4.098;2023-02-01T10:03:05;16.77;;;6.50;;
14528;SDS011;7351;51.194;4.098;2023-02-01T10:05:43;11.80;;;6.33;;
14528;SDS011;7351;51.194;4.098;2023-02-01T10:08:23;10.20;;;6.93;;
14528;SDS011;7351;51.194;4.098;2023-02-01T10:11:01;10.60;;;5.87;;
14528;SDS011;7351;51.194;4.098;2023-02-01T10:13:37;12.03;;;6.07;;
14528;SDS011;7351;51.194;4.098;2023-02-01T10:16:19;14.67;;;5.63;;
14528;SDS011;7351;51.194;4.098;2023-02-01T10:19:02;10.93;;;5.80;;
14528;SDS011;7351;51.194;4.098;2023-02-01T10:21:42;9.57;;;4.80;;
14528;SDS011;7351;51.194;4.098;2023-02-01T10:24:25;8.43;;;5.37;;
14528;SDS011;7351;51.194;4.098;2023-02-01T10:27:02;8.50;;;5.10;;
14528;SDS011;7351;51.194;4.098;2023-02-01T10:29:36;10.50;;;5.63;;
14528;SDS011;7351;51.194;4.098;2023-02-01T10:32:11;11.77;;;5.50;;
14528;SDS011;7351;51.194;4.098;2023-02-01T10:34:40;9.00;;;4.47;;
14528;SDS011;7351;51.194;4.098;2023-02-01T10:37:14;6.77;;;5.53;;
14528;SDS011;7351;51.194;4.098;2023-02-01T10:39:49;9.50;;;5.03;;
14528;SDS011;7351;51.194;4.098;2023-02-01T10:42:21;7.03;;;4.77;;
14528;SDS011;7351;51.194;4.098;2023-02-01T10:44:50;8.77;;;5.40;;
14528;SDS011;7351;51.194;4.098;2023-02-01T10:47:19;9.13;;;4.93;;
14528;SDS011;7351;51.194;4.098;2023-02-01T10:49:47;10.37;;;5.37;;
14528;SDS011;7351;51.194;4.098;2023-02-01T10:52:23;10.30;;;5.53;;
14528;SDS011;7351;51.194;4.098;2023-02-01T10:54:56;9.17;;;5.00;;
14528;SDS011;7351;51.194;4.098;2023-02-01T10:57:48;9.87;;;5.80;;
14528;SDS011;7351;51.194;4.098;2023-02-01T11:00:23;11.80;;;5.33;;
14528;SDS011;7351;51.194;4.098;2023-02-01T11:02:51;6.90;;;4.73;;
14528;SDS011;7351;51.194;4.098;2023-02-01T11:05:19;9.13;;;4.33;;
14528;SDS011;7351;51.194;4.098;2023-02-01T11:07:48;7.63;;;4.83;;
14528;SDS011;7351;51.194;4.098;2023-02-01T11:10:34;10.27;;;4.70;;
14528;SDS011;7351;51.194;4.098;2023-02-01T11:13:04;9.03;;;4.90;;
14528;SDS011;7351;51.194;4.098;2023-02-01T11:15:31;6.03;;;4.30;;
14528;SDS011;7351;51.194;4.098;2023-02-01T11:18:12;9.33;;;5.03;;
14528;SDS011;7351;51.194;4.098;2023-02-01T11:20:42;6.47;;;4.93;;
14528;SDS011;7351;51.194;4.098;2023-02-01T11:23:13;8.57;;;4.50;;
14528;SDS011;7351;51.194;4.098;2023-02-01T11:25:47;9.40;;;4.63;;
14528;SDS011;7351;51.194;4.098;2023-02-01T11:28:16;7.80;;;4.47;;
14528;SDS011;7351;51.194;4.098;2023-02-01T11:30:44;7.57;;;4.70;;
14528;SDS011;7351;51.194;4.098;2023-02-01T11:33:15;7.53;;;4.67;;
14528;SDS011;7351;51.194;4.098;2023-02-01T11:35:43;9.93;;;4.80;;
14528;SDS011;7351;51.194;4.098;2023-02-01T11:38:12;8.43;;;5.00;;
14528;SDS011;7351;51.194;4.098;2023-02-01T11:40:46;11.10;;;6.23;;
14528;SDS011;7351;51.194;4.098;2023-02-01T11:43:14;14.17;;;5.97;;
14528;SDS011;7351;51.194;4.098;2023-02-01T11:45:53;13.47;;;5.57;;
14528;SDS011;7351;51.194;4.098;2023-02-01T11:48:23;9.27;;;5.77;;
14528;SDS011;7351;51.194;4.098;2023-02-01T11:50:54;7.00;;;4.93;;
14528;SDS011;7351;51.194;4.098;2023-02-01T11:53:39;12.57;;;5.73;;
14528;SDS011;7351;51.194;4.098;2023-02-01T11:56:19;6.57;;;5.73;;
14528;SDS011;7351;51.194;4.098;2023-02-01T11:59:10;9.83;;;4.70;;
14528;SDS011;7351;51.194;4.098;2023-02-01T12:01:52;10.07;;;4.67;;
14528;SDS011;7351;51.194;4.098;2023-02-01T12:07:38;6.93;;;4.63;;
14528;SDS011;7351;51.194;4.098;2023-02-01T12:10:24;7.47;;;5.43;;
14528;SDS011;7351;51.194;4.098;2023-02-01T12:13:03;8.37;;;5.00;;
14528;SDS011;7351;51.194;4.098;2023-02-01T12:15:42;13.80;;;3.53;;
14528;SDS011;7351;51.194;4.098;2023-02-01T12:18:29;10.67;;;4.77;;
14528;SDS011;7351;51.194;4.098;2023-02-01T12:21:06;9.27;;;4.43;;
14528;SDS011;7351;51.194;4.098;2023-02-01T12:23:49;6.77;;;3.83;;
14528;SDS011;7351;51.194;4.098;2023-02-01T12:26:38;10.00;;;3.80;;
14528;SDS011;7351;51.194;4.098;2023-02-01T12:29:27;6.57;;;4.27;;
14528;SDS011;7351;51.194;4.098;2023-02-01T12:32:04;4.93;;;3.93;;
14528;SDS011;7351;51.194;4.098;2023-02-01T12:37:54;7.80;;;4.10;;
14528;SDS011;7351;51.194;4.098;2023-02-01T12:40:42;5.37;;;3.23;;
14528;SDS011;7351;51.194;4.098;2023-02-01T12:43:15;8.83;;;3.73;;
14528;SDS011;7351;51.194;4.098;2023-02-01T12:45:48;5.80;;;4.17;;
14528;SDS011;7351;51.194;4.098;2023-02-01T12:48:22;8.23;;;3.40;;
14528;SDS011;7351;51.194;4.098;2023-02-01T12:50:55;6.17;;;3.67;;
14528;SDS011;7351;51.194;4.098;2023-02-01T12:53:28;7.30;;;3.70;;
14528;SDS011;7351;51.194;4.098;2023-02-01T12:56:06;5.23;;;3.00;;
14528;SDS011;7351;51.194;4.098;2023-02-01T12:58:39;7.67;;;4.40;;
14528;SDS011;7351;51.194;4.098;2023-02-01T13:01:09;9.10;;;4.30;;
14528;SDS011;7351;51.194;4.098;2023-02-01T13:03:41;4.47;;;3.67;;
14528;SDS011;7351;51.194;4.098;2023-02-01T13:06:17;7.13;;;3.70;;
14528;SDS011;7351;51.194;4.098;2023-02-01T13:08:48;5.70;;;3.33;;
14528;SDS011;7351;51.194;4.098;2023-02-01T13:11:22;9.53;;;4.33;;
14528;SDS011;7351;51.194;4.098;2023-02-01T13:13:56;6.57;;;3.30;;
14528;SDS011;7351;51.194;4.098;2023-02-01T13:16:28;8.33;;;3.93;;
14528;SDS011;7351;51.194;4.098;2023-02-01T13:18:59;9.43;;;3.57;;
14528;SDS011;7351;51.194;4.098;2023-02-01T13:21:31;9.27;;;3.60;;
14528;SDS011;7351;51.194;4.098;2023-02-01T13:24:03;8.87;;;4.00;;
14528;SDS011;7351;51.194;4.098;2023-02-01T13:26:31;9.93;;;4.33;;
14528;SDS011;7351;51.194;4.098;2023-02-01T13:28:59;10.00;;;3.70;;
14528;SDS011;7351;51.194;4.098;2023-02-01T13:34:45;7.47;;;3.90;;
14528;SDS011;7351;51.194;4.098;2023-02-01T13:37:36;6.87;;;3.33;;
14528;SDS011;7351;51.194;4.098;2023-02-01T13:40:23;4.93;;;3.37;;
14528;SDS011;7351;51.194;4.098;2023-02-01T13:43:07;6.83;;;3.87;;
14528;SDS011;7351;51.194;4.098;2023-02-01T13:45:42;8.43;;;3.57;;
14528;SDS011;7351;51.194;4.098;2023-02-01T13:48:18;8.53;;;4.00;;
14528;SDS011;7351;51.194;4.098;2023-02-01T13:50:49;7.93;;;3.47;;
14528;SDS011;7351;51.194;4.098;2023-02-01T13:53:22;7.07;;;3.67;;
14528;SDS011;7351;51.194;4.098;2023-02-01T13:55:57;9.37;;;4.37;;
14528;SDS011;7351;51.194;4.098;2023-02-01T13:58:31;7.50;;;3.57;;
14528;SDS011;7351;51.194;4.098;2023-02-01T14:04:01;6.37;;;3.30;;
14528;SDS011;7351;51.194;4.098;2023-02-01T14:06:43;7.33;;;3.87;;
14528;SDS011;7351;51.194;4.098;2023-02-01T14:09:15;7.00;;;3.97;;
14528;SDS011;7351;51.194;4.098;2023-02-01T14:11:48;6.10;;;3.10;;
14528;SDS011;7351;51.194;4.098;2023-02-01T14:23:18;8.57;;;3.47;;
14528;SDS011;7351;51.194;4.098;2023-02-01T14:26:03;8.60;;;3.70;;
14528;SDS011;7351;51.194;4.098;2023-02-01T14:28:49;9.43;;;3.97;;
14528;SDS011;7351;51.194;4.098;2023-02-01T14:31:35;6.10;;;3.23;;
14528;SDS011;7351;51.194;4.098;2023-02-01T14:34:14;8.13;;;4.27;;
14528;SDS011;7351;51.194;4.098;2023-02-01T14:36:46;9.70;;;3.67;;
14528;SDS011;7351;51.194;4.098;2023-02-01T14:39:25;9.27;;;4.53;;
14528;SDS011;7351;51.194;4.098;2023-02-01T14:42:00;7.53;;;3.83;;
14528;SDS011;7351;51.194;4.098;2023-02-01T14:44:36;10.57;;;3.80;;
14528;SDS011;7351;51.194;4.098;2023-02-01T14:47:08;7.90;;;4.13;;
14528;SDS011;7351;51.194;4.098;2023-02-01T14:53:04;8.37;;;3.47;;
14528;SDS011;7351;51.194;4.098;2023-02-01T14:55:49;6.10;;;3.53;;
14528;SDS011;7351;51.194;4.098;2023-02-01T14:58:20;5.40;;;3.10;;
14528;SDS011;7351;51.194;4.098;2023-02-01T15:00:58;6.97;;;2.97;;
14528;SDS011;7351;51.194;4.098;2023-02-01T15:06:27;5.67;;;3.93;;
14528;SDS011;7351;51.194;4.098;2023-02-01T15:08:57;6.13;;;3.13;;
14528;SDS011;7351;51.194;4.098;2023-02-01T15:11:27;7.50;;;3.87;;
14528;SDS011;7351;51.194;4.098;2023-02-01T15:13:54;6.00;;;2.90;;
14528;SDS011;7351;51.194;4.098;2023-02-01T15:16:25;5.90;;;3.40;;
14528;SDS011;7351;51.194;4.098;2023-02-01T15:19:10;5.40;;;3.17;;
14528;SDS011;7351;51.194;4.098;2023-02-01T15:21:43;3.40;;;2.40;;
14528;SDS011;7351;51.194;4.098;2023-02-01T15:24:14;8.17;;;3.83;;
14528;SDS011;7351;51.194;4.098;2023-02-01T15:26:46;6.97;;;3.17;;
14528;SDS011;7351;51.194;4.098;2023-02-01T15:29:13;5.97;;;3.37;;
14528;SDS011;7351;51.194;4.098;2023-02-01T15:31:41;7.33;;;3.80;;
14528;SDS011;7351;51.194;4.098;2023-02-01T15:34:12;8.13;;;4.00;;
14528;SDS011;7351;51.194;4.098;2023-02-01T15:36:39;6.40;;;3.23;;
14528;SDS011;7351;51.194;4.098;2023-02-01T15:39:17;5.30;;;3.47;;
14528;SDS011;7351;51.194;4.098;2023-02-01T15:41:48;5.73;;;3.87;;
14528;SDS011;7351;51.194;4.098;2023-02-01T15:44:21;5.67;;;3.60;;
14528;SDS011;7351;51.194;4.098;2023-02-01T15:46:56;7.03;;;3.47;;
14528;SDS011;7351;51.194;4.098;2023-02-01T15:49:27;6.97;;;4.07;;
14528;SDS011;7351;51.194;4.098;2023-02-01T15:51:56;5.10;;;3.17;;
14528;SDS011;7351;51.194;4.098;2023-02-01T15:54:25;6.13;;;3.73;;
14528;SDS011;7351;51.194;4.098;2023-02-01T15:56:56;7.30;;;3.47;;
14528;SDS011;7351;51.194;4.098;2023-02-01T15:59:28;7.47;;;4.00;;
14528;SDS011;7351;51.194;4.098;2023-02-01T16:01:58;6.83;;;3.77;;
14528;SDS011;7351;51.194;4.098;2023-02-01T16:04:27;6.30;;;3.93;;